TimeCET,TemperatureF,Dew PointF,Humidity,Sea Level PressureIn,VisibilityMPH,Wind Direction,Wind SpeedMPH,Gust SpeedMPH,PrecipitationIn,Events,Conditions,WindDirDegrees,DateUTC
12:00 AM,41.0,32.0,70,29.71,-9999.0,WSW,6.9,-,N/A,,Clear,240,2012-10-31 23:00:00
12:30 AM,41.0,33.8,76,29.71,-9999.0,Variable,5.8,-,N/A,,Clear,0,2012-10-31 23:30:00
1:00 AM,41,33,63,29.73,12,,2.2,,,,Clear,,2012-11-01 00:00:00
1:00 AM,41.0,33.8,76,29.68,-9999.0,Variable,2.3,-,N/A,,Clear,0,2012-11-01 00:00:00
1:30 AM,41.0,32.0,70,29.68,-9999.0,Variable,1.2,-,N/A,,Clear,0,2012-11-01 00:30:00
2:00 AM,37.4,33.8,87,29.68,-9999.0,Variable,3.5,-,N/A,,Clear,0,2012-11-01 01:00:00
2:30 AM,37.4,32.0,81,29.65,-9999.0,Variable,1.2,-,N/A,,Clear,0,2012-11-01 01:30:00
3:00 AM,37.4,32.0,81,29.62,-9999.0,Variable,3.5,-,N/A,,Clear,0,2012-11-01 02:00:00
3:30 AM,35.6,32.0,87,29.62,-9999.0,Variable,2.3,-,N/A,,Clear,0,2012-11-01 02:30:00
4:00 AM,35.6,32.0,87,29.62,-9999.0,Variable,2.3,-,N/A,,Clear,0,2012-11-01 03:00:00
4:30 AM,35.6,32.0,87,29.62,-9999.0,Variable,1.2,-,N/A,,Clear,0,2012-11-01 03:30:00
5:00 AM,33.8,32.0,93,29.59,-9999.0,Variable,3.5,-,N/A,,Clear,0,2012-11-01 04:00:00
5:30 AM,35.6,32.0,87,29.56,-9999.0,Variable,2.3,-,N/A,,Clear,0,2012-11-01 04:30:00
6:00 AM,33.8,30.2,87,29.56,-9999.0,Variable,2.3,-,N/A,,Clear,0,2012-11-01 05:00:00
6:30 AM,33.8,30.2,87,29.53,-9999.0,Variable,1.2,-,N/A,,Clear,0,2012-11-01 05:30:00
7:00 AM,35,32,83,29.59,19,,2.2,,,,Scattered Clouds,,2012-11-01 06:00:00
7:00 AM,33.8,32.0,93,29.53,-9999.0,Variable,1.2,-,N/A,,Clear,0,2012-11-01 06:00:00
7:30 AM,35.6,32.0,87,29.53,-9999.0,Variable,2.3,-,N/A,,Clear,0,2012-11-01 06:30:00
8:00 AM,39.2,32.0,75,29.50,-9999.0,Variable,3.5,-,N/A,,Clear,0,2012-11-01 07:00:00
8:30 AM,50.0,35.6,58,29.50,6.2,South,8.1,-,N/A,,Partly Cloudy,170,2012-11-01 07:30:00
9:00 AM,42.8,33.8,70,29.50,6.2,SSE,5.8,-,N/A,,Partly Cloudy,150,2012-11-01 08:00:00
9:30 AM,50.0,37.4,62,29.47,6.2,South,4.6,-,N/A,,Scattered Clouds,170,2012-11-01 08:30:00
10:00 AM,44.6,37.4,76,29.47,6.2,Variable,4.6,-,N/A,,Scattered Clouds,0,2012-11-01 09:00:00
10:30 AM,51.8,39.2,62,29.44,6.2,NNW,5.8,-,N/A,,Scattered Clouds,330,2012-11-01 09:30:00
11:00 AM,51.8,39.2,62,29.44,6.2,Variable,3.5,-,N/A,,Mostly Cloudy,0,2012-11-01 10:00:00
11:30 AM,53.6,41.0,62,29.42,6.2,Variable,4.6,-,N/A,,Scattered Clouds,0,2012-11-01 10:30:00
12:00 PM,55.4,42.8,63,29.39,6.2,Variable,5.8,-,N/A,,Scattered Clouds,0,2012-11-01 11:00:00
12:30 PM,53.6,42.8,67,29.39,6.2,South,9.2,-,N/A,Rain,Light Rain,170,2012-11-01 11:30:00
1:00 PM,52,43,64,29.40,7,South,6.7,,,Rain,Light Rain,190,2012-11-01 12:00:00
1:00 PM,51.8,42.8,71,29.39,6.2,Variable,5.8,-,N/A,Rain,Light Rain,0,2012-11-01 12:00:00
1:30 PM,51.8,44.6,76,29.39,6.2,SW,5.8,-,N/A,,Mostly Cloudy,220,2012-11-01 12:30:00
2:00 PM,51.8,44.6,76,29.36,6.2,NW,3.5,-,N/A,,Mostly Cloudy,320,2012-11-01 13:00:00
2:30 PM,50.0,44.6,82,29.36,6.2,West,5.8,-,N/A,,Mostly Cloudy,270,2012-11-01 13:30:00
3:00 PM,50.0,44.6,82,29.36,6.2,SSW,4.6,-,N/A,,Overcast,200,2012-11-01 14:00:00
3:30 PM,51.8,44.6,76,29.36,6.2,SSW,11.5,-,N/A,Rain,Light Rain,210,2012-11-01 14:30:00
4:00 PM,51.8,42.8,71,29.36,6.2,South,8.1,-,N/A,,Overcast,190,2012-11-01 15:00:00
4:30 PM,51.8,44.6,76,29.36,6.2,South,9.2,-,N/A,,Overcast,180,2012-11-01 15:30:00
5:00 PM,51.8,44.6,76,29.39,6.2,South,6.9,-,N/A,Rain,Light Rain,190,2012-11-01 16:00:00
5:30 PM,50.0,44.6,82,29.39,6.2,SSW,6.9,-,N/A,Rain,Light Rain,210,2012-11-01 16:30:00
6:00 PM,48.2,44.6,87,29.39,6.2,WNW,3.5,-,N/A,Rain,Light Rain,300,2012-11-01 17:00:00
6:30 PM,48.2,46.4,93,29.39,6.2,Calm,Calm,-,N/A,Rain,Light Rain,0,2012-11-01 17:30:00
7:00 PM,47,46,93,29.42,7,,2.2,,,Rain,Light Rain,,2012-11-01 18:00:00
7:00 PM,46.4,46.4,100,29.39,6.2,Calm,Calm,-,N/A,Rain,Light Rain,0,2012-11-01 18:00:00
7:30 PM,46.4,44.6,93,29.42,6.2,Variable,2.3,-,N/A,,Overcast,0,2012-11-01 18:30:00
8:00 PM,48.2,46.4,93,29.39,6.2,SSW,3.5,-,N/A,,Overcast,200,2012-11-01 19:00:00
8:30 PM,48.2,46.4,93,29.42,6.2,West,3.5,-,N/A,,Overcast,280,2012-11-01 19:30:00
9:00 PM,48.2,46.4,93,29.42,6.2,SW,5.8,-,N/A,,Overcast,230,2012-11-01 20:00:00
9:30 PM,50.0,46.4,87,29.42,6.2,SW,11.5,-,N/A,,Overcast,220,2012-11-01 20:30:00
10:00 PM,48.2,46.4,93,29.44,6.2,WSW,11.5,-,N/A,,Overcast,240,2012-11-01 21:00:00
10:30 PM,48.2,46.4,93,29.44,6.2,WSW,9.2,-,N/A,,Overcast,250,2012-11-01 21:30:00
11:00 PM,48.2,46.4,93,29.44,6.2,WSW,8.1,-,N/A,,Overcast,250,2012-11-01 22:00:00
11:30 PM,48.2,46.4,93,29.44,6.2,WSW,9.2,-,N/A,,Overcast,240,2012-11-01 22:30:00